sensor_id;sensor_type;location;lat;lon;timestamp;pressure;altitude;pressure_sealevel;temperature;humidity
6532;BME280;3299;42.004;24.868;2023-03-23T00:00:51;98118.69;;;10.19;100.00
6532;BME280;3299;42.004;24.868;2023-03-23T00:03:16;98142.56;;;10.46;100.00
6532;BME280;3299;42.004;24.868;2023-03-23T00:05:42;98118.19;;;10.38;100.00
6532;BME280;3299;42.004;24.868;2023-03-23T00:08:16;98140.41;;;10.64;100.00
6532;BME280;3299;42.004;24.868;2023-03-23T00:10:41;98156.47;;;10.80;100.00
6532;BME280;3299;42.004;24.868;2023-03-23T00:13:06;98108.19;;;10.57;100.00
6532;BME280;3299;42.004;24.868;2023-03-23T00:15:32;98155.28;;;10.84;100.00
6532;BME280;3299;42.004;24.868;2023-03-23T00:18:00;98132.22;;;10.70;100.00
6532;BME280;3299;42.004;24.868;2023-03-23T00:20:27;98203.25;;;11.00;100.00
6532;BME280;3299;42.004;24.868;2023-03-23T00:22:55;98110.03;;;10.55;100.00
6532;BME280;3299;42.004;24.868;2023-03-23T00:25:25;98172.28;;;10.99;100.00
6532;BME280;3299;42.004;24.868;2023-03-23T00:27:50;98133.63;;;10.74;100.00
6532;BME280;3299;42.004;24.868;2023-03-23T00:30:15;98149.66;;;10.79;100.00
6532;BME280;3299;42.004;24.868;2023-03-23T00:32:41;98168.09;;;10.74;100.00
6532;BME280;3299;42.004;24.868;2023-03-23T00:35:07;98176.94;;;10.83;100.00
6532;BME280;3299;42.004;24.868;2023-03-23T00:37:33;98190.97;;;10.91;100.00
6532;BME280;3299;42.004;24.868;2023-03-23T00:40:01;98169.19;;;10.83;100.00
6532;BME280;3299;42.004;24.868;2023-03-23T00:42:31;98096.84;;;10.47;100.00
6532;BME280;3299;42.004;24.868;2023-03-23T00:45:01;98106.97;;;10.50;100.00
6532;BME280;3299;42.004;24.868;2023-03-23T00:47:27;98103.50;;;10.38;100.00
6532;BME280;3299;42.004;24.868;2023-03-23T00:49:53;98180.47;;;10.82;100.00
6532;BME280;3299;42.004;24.868;2023-03-23T00:52:21;98180.16;;;10.63;100.00
6532;BME280;3299;42.004;24.868;2023-03-23T00:54:46;98196.88;;;10.70;100.00
6532;BME280;3299;42.004;24.868;2023-03-23T00:57:11;98142.03;;;10.30;100.00
6532;BME280;3299;42.004;24.868;2023-03-23T00:59:37;98168.63;;;10.56;100.00
6532;BME280;3299;42.004;24.868;2023-03-23T01:02:02;98124.91;;;10.40;100.00
6532;BME280;3299;42.004;24.868;2023-03-23T01:04:28;98117.09;;;10.53;100.00
6532;BME280;3299;42.004;24.868;2023-03-23T01:06:53;98087.16;;;10.38;100.00
6532;BME280;3299;42.004;24.868;2023-03-23T01:09:19;98134.41;;;10.63;100.00
6532;BME280;3299;42.004;24.868;2023-03-23T01:11:48;98148.66;;;10.69;100.00
6532;BME280;3299;42.004;24.868;2023-03-23T01:14:16;98180.38;;;10.83;100.00
6532;BME280;3299;42.004;24.868;2023-03-23T01:16:42;98113.34;;;10.57;100.00
6532;BME280;3299;42.004;24.868;2023-03-23T01:19:07;98149.47;;;10.69;100.00
6532;BME280;3299;42.004;24.868;2023-03-23T01:21:33;98153.03;;;10.45;100.00
6532;BME280;3299;42.004;24.868;2023-03-23T01:23:58;98088.66;;;9.93;100.00
6532;BME280;3299;42.004;24.868;2023-03-23T01:26:26;98129.31;;;10.04;100.00
6532;BME280;3299;42.004;24.868;2023-03-23T01:28:52;98107.88;;;10.02;100.00
6532;BME280;3299;42.004;24.868;2023-03-23T01:31:20;98151.88;;;10.49;100.00
6532;BME280;3299;42.004;24.868;2023-03-23T01:33:47;98136.53;;;10.35;100.00
6532;BME280;3299;42.004;24.868;2023-03-23T01:36:15;98130.41;;;10.36;100.00
6532;BME280;3299;42.004;24.868;2023-03-23T01:38:44;98112.75;;;10.30;100.00
6532;BME280;3299;42.004;24.868;2023-03-23T01:41:10;98135.44;;;10.50;100.00
6532;BME280;3299;42.004;24.868;2023-03-23T01:43:36;98122.72;;;10.47;100.00
6532;BME280;3299;42.004;24.868;2023-03-23T01:46:18;98116.34;;;10.40;100.00
6532;BME280;3299;42.004;24.868;2023-03-23T01:48:43;98106.69;;;10.42;100.00
6532;BME280;3299;42.004;24.868;2023-03-23T01:51:14;98196.53;;;10.98;100.00
6532;BME280;3299;42.004;24.868;2023-03-23T01:53:46;98156.03;;;10.62;100.00
6532;BME280;3299;42.004;24.868;2023-03-23T01:56:16;98127.88;;;10.47;100.00
6532;BME280;3299;42.004;24.868;2023-03-23T01:58:45;98149.31;;;10.60;100.00
6532;BME280;3299;42.004;24.868;2023-03-23T02:01:13;98105.16;;;10.39;100.00
6532;BME280;3299;42.004;24.868;2023-03-23T02:03:43;98163.50;;;10.78;100.00
6532;BME280;3299;42.004;24.868;2023-03-23T02:06:10;98179.09;;;10.89;100.00
6532;BME280;3299;42.004;24.868;2023-03-23T02:08:36;98143.94;;;10.63;100.00
6532;BME280;3299;42.004;24.868;2023-03-23T02:11:22;98177.19;;;10.80;100.00
6532;BME280;3299;42.004;24.868;2023-03-23T02:13:48;98109.03;;;10.34;100.00
6532;BME280;3299;42.004;24.868;2023-03-23T02:16:22;98184.91;;;10.69;100.00
6532;BME280;3299;42.004;24.868;2023-03-23T02:21:53;98193.59;;;10.68;100.00
6532;BME280;3299;42.004;24.868;2023-03-23T02:27:07;98188.28;;;10.69;100.00
6532;BME280;3299;42.004;24.868;2023-03-23T02:29:54;98190.88;;;10.69;100.00
6532;BME280;3299;42.004;24.868;2023-03-23T02:35:20;98106.31;;;10.12;100.00
6532;BME280;3299;42.004;24.868;2023-03-23T02:38:31;98199.81;;;10.65;100.00
6532;BME280;3299;42.004;24.868;2023-03-23T02:40:40;98156.50;;;10.33;100.00
6532;BME280;3299;42.004;24.868;2023-03-23T02:43:09;98118.97;;;9.91;100.00
6532;BME280;3299;42.004;24.868;2023-03-23T02:45:37;98176.19;;;10.23;100.00
6532;BME280;3299;42.004;24.868;2023-03-23T02:48:04;98206.19;;;10.13;100.00
6532;BME280;3299;42.004;24.868;2023-03-23T02:50:32;98110.38;;;9.55;100.00
6532;BME280;3299;42.004;24.868;2023-03-23T02:52:59;98109.06;;;9.37;100.00
6532;BME280;3299;42.004;24.868;2023-03-23T02:55:26;98206.31;;;9.86;100.00
6532;BME280;3299;42.004;24.868;2023-03-23T02:57:54;98132.69;;;9.56;100.00
6532;BME280;3299;42.004;24.868;2023-03-23T03:00:20;98192.16;;;9.92;100.00
6532;BME280;3299;42.004;24.868;2023-03-23T03:02:49;98177.28;;;9.95;100.00
6532;BME280;3299;42.004;24.868;2023-03-23T03:06:08;98202.47;;;10.17;100.00
6532;BME280;3299;42.004;24.868;2023-03-23T03:08:37;98200.09;;;10.14;100.00
6532;BME280;3299;42.004;24.868;2023-03-23T03:11:17;98121.31;;;9.71;100.00
6532;BME280;3299;42.004;24.868;2023-03-23T03:16:36;98213.25;;;10.34;100.00
6532;BME280;3299;42.004;24.868;2023-03-23T03:19:32;98228.16;;;10.43;100.00
6532;BME280;3299;42.004;24.868;2023-03-23T03:22:01;98182.94;;;10.13;100.00
6532;BME280;3299;42.004;24.868;2023-03-23T03:24:28;98151.81;;;10.02;100.00
6532;BME280;3299;42.004;24.868;2023-03-23T03:26:56;98137.16;;;9.90;100.00
6532;BME280;3299;42.004;24.868;2023-03-23T03:29:27;98167.16;;;10.05;100.00
6532;BME280;3299;42.004;24.868;2023-03-23T03:31:56;98214.53;;;10.29;100.00
6532;BME280;3299;42.004;24.868;2023-03-23T03:34:23;98183.88;;;10.12;100.00
6532;BME280;3299;42.004;24.868;2023-03-23T03:36:52;98160.50;;;10.01;100.00
6532;BME280;3299;42.004;24.868;2023-03-23T03:39:19;98217.63;;;10.34;100.00
6532;BME280;3299;42.004;24.868;2023-03-23T03:41:47;98188.41;;;10.21;100.00
6532;BME280;3299;42.004;24.868;2023-03-23T03:44:12;98232.22;;;10.35;100.00
6532;BME280;3299;42.004;24.868;2023-03-23T03:46:38;98167.38;;;9.89;100.00
6532;BME280;3299;42.004;24.868;2023-03-23T03:49:07;98217.13;;;10.29;100.00
6532;BME280;3299;42.004;24.868;2023-03-23T03:51:34;98179.03;;;10.07;100.00
6532;BME280;3299;42.004;24.868;2023-03-23T03:54:00;98196.34;;;10.30;100.00
6532;BME280;3299;42.004;24.868;2023-03-23T03:56:26;98208.06;;;10.23;100.00
6532;BME280;3299;42.004;24.868;2023-03-23T03:58:52;98194.31;;;10.10;100.00
6532;BME280;3299;42.004;24.868;2023-03-23T04:01:22;98157.75;;;9.91;100.00
6532;BME280;3299;42.004;24.868;2023-03-23T04:03:49;98206.50;;;10.21;100.00
6532;BME280;3299;42.004;24.868;2023-03-23T04:06:16;98255.84;;;10.54;100.00
6532;BME280;3299;42.004;24.868;2023-03-23T04:08:42;98177.47;;;10.05;100.00
6532;BME280;3299;42.004;24.868;2023-03-23T04:11:09;98213.41;;;10.33;100.00
6532;BME280;3299;42.004;24.868;2023-03-23T04:13:35;98170.22;;;9.97;100.00
6532;BME280;3299;42.004;24.868;2023-03-23T04:16:00;98196.09;;;10.10;100.00
6532;BME280;3299;42.004;24.868;2023-03-23T04:18:28;98193.09;;;10.03;100.00
6532;BME280;3299;42.004;24.868;2023-03-23T04:20:54;98197.22;;;10.06;100.00
6532;BME280;3299;42.004;24.868;2023-03-23T04:23:24;98242.19;;;10.16;100.00
6532;BME280;3299;42.004;24.868;2023-03-23T04:25:50;98166.16;;;9.70;100.00
6532;BME280;3299;42.004;24.868;2023-03-23T04:28:17;98192.47;;;9.87;100.00
6532;BME280;3299;42.004;24.868;2023-03-23T04:30:44;98254.59;;;10.23;100.00
6532;BME280;3299;42.004;24.868;2023-03-23T04:33:10;98212.09;;;9.90;100.00
6532;BME280;3299;42.004;24.868;2023-03-23T04:35:40;98258.00;;;10.24;100.00
6532;BME280;3299;42.004;24.868;2023-03-23T04:38:07;98240.13;;;10.21;100.00
6532;BME280;3299;42.004;24.868;2023-03-23T04:40:38;98175.31;;;9.74;100.00
6532;BME280;3299;42.004;24.868;2023-03-23T04:43:04;98208.66;;;10.02;100.00
6532;BME280;3299;42.004;24.868;2023-03-23T04:45:31;98208.50;;;10.05;100.00
6532;BME280;3299;42.004;24.868;2023-03-23T04:47:57;98162.63;;;9.71;100.00
6532;BME280;3299;42.004;24.868;2023-03-23T04:50:29;98259.94;;;10.33;100.00
6532;BME280;3299;42.004;24.868;2023-03-23T04:52:57;98161.78;;;9.83;100.00
6532;BME280;3299;42.004;24.868;2023-03-23T04:55:25;98194.63;;;10.06;100.00
6532;BME280;3299;42.004;24.868;2023-03-23T04:57:51;98264.03;;;10.48;100.00
6532;BME280;3299;42.004;24.868;2023-03-23T05:00:17;98167.53;;;9.99;100.00
6532;BME280;3299;42.004;24.868;2023-03-23T05:02:44;98232.72;;;10.40;100.00
6532;BME280;3299;42.004;24.868;2023-03-23T05:05:12;98217.03;;;10.30;100.00
6532;BME280;3299;42.004;24.868;2023-03-23T05:07:39;98213.84;;;10.27;100.00
6532;BME280;3299;42.004;24.868;2023-03-23T05:10:06;98253.31;;;10.41;100.00
6532;BME280;3299;42.004;24.868;2023-03-23T05:12:33;98213.13;;;10.00;100.00
6532;BME280;3299;42.004;24.868;2023-03-23T05:14:58;98244.53;;;10.19;100.00
6532;BME280;3299;42.004;24.868;2023-03-23T05:17:24;98243.94;;;10.15;100.00
6532;BME280;3299;42.004;24.868;2023-03-23T05:19:50;98251.06;;;10.24;100.00
6532;BME280;3299;42.004;24.868;2023-03-23T05:22:17;98213.66;;;10.05;100.00
6532;BME280;3299;42.004;24.868;2023-03-23T05:24:43;98203.13;;;9.95;100.00
6532;BME280;3299;42.004;24.868;2023-03-23T05:27:09;98230.81;;;10.06;100.00
6532;BME280;3299;42.004;24.868;2023-03-23T05:29:35;98207.25;;;9.98;100.00
6532;BME280;3299;42.004;24.868;2023-03-23T05:32:03;98203.53;;;9.77;100.00
6532;BME280;3299;42.004;24.868;2023-03-23T05:34:32;98267.38;;;10.25;100.00
6532;BME280;3299;42.004;24.868;2023-03-23T05:36:58;98194.25;;;9.87;100.00
6532;BME280;3299;42.004;24.868;2023-03-23T05:39:24;98272.44;;;10.39;100.00
6532;BME280;3299;42.004;24.868;2023-03-23T05:41:49;98183.06;;;9.99;100.00
6532;BME280;3299;42.004;24.868;2023-03-23T05:44:15;98232.63;;;10.29;100.00
6532;BME280;3299;42.004;24.868;2023-03-23T05:46:41;98222.72;;;10.35;100.00
6532;BME280;3299;42.004;24.868;2023-03-23T05:49:06;98197.91;;;10.20;100.00
6532;BME280;3299;42.004;24.868;2023-03-23T05:51:32;98242.63;;;10.46;100.00
6532;BME280;3299;42.004;24.868;2023-03-23T05:53:58;98287.72;;;10.78;100.00
6532;BME280;3299;42.004;24.868;2023-03-23T05:56:23;98298.06;;;10.78;100.00
6532;BME280;3299;42.004;24.868;2023-03-23T05:58:49;98291.06;;;10.80;100.00
6532;BME280;3299;42.004;24.868;2023-03-23T06:01:14;98243.34;;;10.48;100.00
6532;BME280;3299;42.004;24.868;2023-03-23T06:03:41;98323.09;;;10.90;100.00
6532;BME280;3299;42.004;24.868;2023-03-23T06:06:09;98267.97;;;10.53;100.00
6532;BME280;3299;42.004;24.868;2023-03-23T06:08:35;98233.25;;;10.32;100.00
6532;BME280;3299;42.004;24.868;2023-03-23T06:11:02;98322.53;;;10.74;100.00
6532;BME280;3299;42.004;24.868;2023-03-23T06:13:28;98286.38;;;10.49;100.00
6532;BME280;3299;42.004;24.868;2023-03-23T06:15:56;98254.44;;;10.37;100.00
6532;BME280;3299;42.004;24.868;2023-03-23T06:18:25;98244.88;;;10.27;100.00
6532;BME280;3299;42.004;24.868;2023-03-23T06:20:51;98327.22;;;10.56;100.00
6532;BME280;3299;42.004;24.868;2023-03-23T06:23:18;98311.81;;;10.55;100.00
6532;BME280;3299;42.004;24.868;2023-03-23T06:25:43;98298.41;;;10.37;100.00
6532;BME280;3299;42.004;24.868;2023-03-23T06:28:09;98314.81;;;10.49;100.00
6532;BME280;3299;42.004;24.868;2023-03-23T06:30:36;98263.50;;;10.19;100.00
6532;BME280;3299;42.004;24.868;2023-03-23T06:33:02;98239.72;;;10.14;100.00
6532;BME280;3299;42.004;24.868;2023-03-23T06:35:33;98242.28;;;10.27;100.00
6532;BME280;3299;42.004;24.868;2023-03-23T06:37:58;98320.13;;;10.83;100.00
6532;BME280;3299;42.004;24.868;2023-03-23T06:40:27;98323.09;;;10.90;100.00
6532;BME280;3299;42.004;24.868;2023-03-23T06:42:54;98248.91;;;10.54;100.00
6532;BME280;3299;42.004;24.868;2023-03-23T06:45:19;98295.03;;;10.73;100.00
6532;BME280;3299;42.004;24.868;2023-03-23T06:47:45;98326.63;;;10.89;100.00
6532;BME280;3299;42.004;24.868;2023-03-23T06:50:14;98318.97;;;10.87;100.00
6532;BME280;3299;42.004;24.868;2023-03-23T06:52:40;98337.13;;;10.98;100.00
6532;BME280;3299;42.004;24.868;2023-03-23T06:55:06;98335.84;;;10.80;100.00
6532;BME280;3299;42.004;24.868;2023-03-23T06:57:32;98292.81;;;10.31;100.00
6532;BME280;3299;42.004;24.868;2023-03-23T06:59:57;98254.38;;;10.01;100.00
6532;BME280;3299;42.004;24.868;2023-03-23T07:02:22;98261.94;;;10.17;100.00
6532;BME280;3299;42.004;24.868;2023-03-23T07:04:48;98253.31;;;10.29;100.00
6532;BME280;3299;42.004;24.868;2023-03-23T07:07:14;98263.22;;;10.47;100.00
6532;BME280;3299;42.004;24.868;2023-03-23T07:09:43;98338.19;;;10.96;100.00
6532;BME280;3299;42.004;24.868;2023-03-23T07:12:09;98296.22;;;10.80;100.00
6532;BME280;3299;42.004;24.868;2023-03-23T07:14:35;98296.00;;;10.83;100.00
6532;BME280;3299;42.004;24.868;2023-03-23T07:17:02;98316.25;;;10.89;100.00
6532;BME280;3299;42.004;24.868;2023-03-23T07:19:28;98267.19;;;10.64;100.00
6532;BME280;3299;42.004;24.868;2023-03-23T07:21:53;98304.59;;;10.83;100.00
6532;BME280;3299;42.004;24.868;2023-03-23T07:24:19;98281.16;;;10.61;100.00
6532;BME280;3299;42.004;24.868;2023-03-23T07:26:44;98330.31;;;10.97;100.00
6532;BME280;3299;42.004;24.868;2023-03-23T07:29:10;98346.06;;;11.18;100.00
6532;BME280;3299;42.004;24.868;2023-03-23T07:31:36;98306.97;;;11.10;100.00
6532;BME280;3299;42.004;24.868;2023-03-23T07:34:02;98350.25;;;11.55;100.00
6532;BME280;3299;42.004;24.868;2023-03-23T07:36:28;98338.00;;;11.57;100.00
6532;BME280;3299;42.004;24.868;2023-03-23T07:38:54;98320.31;;;11.51;100.00
6532;BME280;3299;42.004;24.868;2023-03-23T07:41:20;98370.16;;;11.78;100.00
6532;BME280;3299;42.004;24.868;2023-03-23T07:43:45;98332.09;;;11.44;100.00
6532;BME280;3299;42.004;24.868;2023-03-23T07:46:11;98340.09;;;11.52;100.00
6532;BME280;3299;42.004;24.868;2023-03-23T07:48:37;98357.91;;;11.80;100.00
6532;BME280;3299;42.004;24.868;2023-03-23T07:51:03;98371.50;;;11.94;100.00
6532;BME280;3299;42.004;24.868;2023-03-23T07:53:29;98340.19;;;11.63;100.00
6532;BME280;3299;42.004;24.868;2023-03-23T07:55:54;98296.03;;;11.41;100.00
6532;BME280;3299;42.004;24.868;2023-03-23T07:58:20;98299.31;;;11.32;100.00
6532;BME280;3299;42.004;24.868;2023-03-23T08:00:46;98285.31;;;11.11;100.00
6532;BME280;3299;42.004;24.868;2023-03-23T08:03:14;98337.78;;;11.60;100.00
6532;BME280;3299;42.004;24.868;2023-03-23T08:05:40;98366.50;;;11.91;100.00
6532;BME280;3299;42.004;24.868;2023-03-23T08:08:08;98371.09;;;11.88;100.00
6532;BME280;3299;42.004;24.868;2023-03-23T08:10:34;98290.34;;;11.36;100.00
6532;BME280;3299;42.004;24.868;2023-03-23T08:13:00;98341.28;;;11.82;100.00
6532;BME280;3299;42.004;24.868;2023-03-23T08:15:26;98380.50;;;12.23;100.00
6532;BME280;3299;42.004;24.868;2023-03-23T08:17:52;98340.00;;;11.88;100.00
6532;BME280;3299;42.004;24.868;2023-03-23T08:20:18;98342.88;;;11.96;100.00
6532;BME280;3299;42.004;24.868;2023-03-23T08:22:50;98331.97;;;11.80;100.00
6532;BME280;3299;42.004;24.868;2023-03-23T08:25:18;98381.78;;;12.29;100.00
6532;BME280;3299;42.004;24.868;2023-03-23T08:27:44;98353.63;;;12.24;100.00
6532;BME280;3299;42.004;24.868;2023-03-23T08:30:12;98303.03;;;12.19;100.00
6532;BME280;3299;42.004;24.868;2023-03-23T08:32:38;98382.16;;;12.90;100.00
6532;BME280;3299;42.004;24.868;2023-03-23T08:35:05;98318.81;;;12.71;100.00
6532;BME280;3299;42.004;24.868;2023-03-23T08:37:32;98306.75;;;12.81;100.00
6532;BME280;3299;42.004;24.868;2023-03-23T08:39:57;98340.19;;;13.28;100.00
6532;BME280;3299;42.004;24.868;2023-03-23T08:42:26;98353.94;;;13.50;100.00
6532;BME280;3299;42.004;24.868;2023-03-23T08:44:52;98383.38;;;13.71;100.00
6532;BME280;3299;42.004;24.868;2023-03-23T08:47:18;98303.75;;;13.39;100.00
6532;BME280;3299;42.004;24.868;2023-03-23T08:49:43;98358.91;;;13.74;100.00
6532;BME280;3299;42.004;24.868;2023-03-23T08:52:10;98345.19;;;13.72;100.00
6532;BME280;3299;42.004;24.868;2023-03-23T08:54:36;98319.75;;;13.55;100.00
6532;BME280;3299;42.004;24.868;2023-03-23T08:57:02;98324.88;;;13.45;100.00
6532;BME280;3299;42.004;24.868;2023-03-23T08:59:28;98302.19;;;13.16;100.00
6532;BME280;3299;42.004;24.868;2023-03-23T09:01:53;98364.91;;;13.54;100.00
6532;BME280;3299;42.004;24.868;2023-03-23T09:04:19;98363.94;;;13.55;100.00
6532;BME280;3299;42.004;24.868;2023-03-23T09:06:46;98376.41;;;13.72;100.00
6532;BME280;3299;42.004;24.868;2023-03-23T09:09:12;98361.75;;;13.71;100.00
6532;BME280;3299;42.004;24.868;2023-03-23T09:11:38;98374.25;;;13.77;100.00
6532;BME280;3299;42.004;24.868;2023-03-23T09:14:05;98335.50;;;13.74;100.00
6532;BME280;3299;42.004;24.868;2023-03-23T09:16:31;98397.59;;;14.19;100.00
6532;BME280;3299;42.004;24.868;2023-03-23T09:18:58;98309.75;;;13.71;100.00
6532;BME280;3299;42.004;24.868;2023-03-23T09:21:24;98355.16;;;14.08;100.00
6532;BME280;3299;42.004;24.868;2023-03-23T09:23:50;98312.34;;;13.91;100.00
6532;BME280;3299;42.004;24.868;2023-03-23T09:26:16;98336.19;;;14.17;100.00
6532;BME280;3299;42.004;24.868;2023-03-23T09:28:42;98389.94;;;14.48;100.00
6532;BME280;3299;42.004;24.868;2023-03-23T09:31:09;98392.13;;;14.52;100.00
6532;BME280;3299;42.004;24.868;2023-03-23T09:33:36;98379.66;;;14.46;100.00
6532;BME280;3299;42.004;24.868;2023-03-23T09:36:02;98392.84;;;14.54;100.00
6532;BME280;3299;42.004;24.868;2023-03-23T09:38:30;98335.19;;;14.08;100.00
6532;BME280;3299;42.004;24.868;2023-03-23T09:52:01;98385.34;;;14.61;100.00
6532;BME280;3299;42.004;24.868;2023-03-23T09:54:41;98389.81;;;14.79;100.00
6532;BME280;3299;42.004;24.868;2023-03-23T09:57:16;98302.50;;;14.45;100.00
6532;BME280;3299;42.004;24.868;2023-03-23T09:59:56;98354.72;;;14.83;100.00
6532;BME280;3299;42.004;24.868;2023-03-23T10:02:30;98379.19;;;15.01;100.00
6532;BME280;3299;42.004;24.868;2023-03-23T10:05:18;98333.44;;;14.69;100.00
6532;BME280;3299;42.004;24.868;2023-03-23T10:07:45;98302.47;;;14.36;100.00
6532;BME280;3299;42.004;24.868;2023-03-23T10:10:13;98337.13;;;14.66;100.00
6532;BME280;3299;42.004;24.868;2023-03-23T10:15:31;98352.72;;;15.06;100.00
6532;BME280;3299;42.004;24.868;2023-03-23T10:25:51;98376.53;;;15.79;100.00
6532;BME280;3299;42.004;24.868;2023-03-23T10:28:32;98373.69;;;15.72;100.00
6532;BME280;3299;42.004;24.868;2023-03-23T10:31:00;98298.03;;;15.34;100.00
6532;BME280;3299;42.004;24.868;2023-03-23T10:33:35;98367.34;;;15.75;100.00
6532;BME280;3299;42.004;24.868;2023-03-23T10:36:08;98290.38;;;15.33;100.00
6532;BME280;3299;42.004;24.868;2023-03-23T10:38:49;98361.19;;;15.76;100.00
6532;BME280;3299;42.004;24.868;2023-03-23T10:41:18;98355.13;;;15.94;100.00
6532;BME280;3299;42.004;24.868;2023-03-23T10:43:45;98362.81;;;16.05;100.00
6532;BME280;3299;42.004;24.868;2023-03-23T10:49:05;98298.13;;;16.36;100.00
6532;BME280;3299;42.004;24.868;2023-03-23T10:51:37;98349.22;;;16.84;94.37
6532;BME280;3299;42.004;24.868;2023-03-23T10:54:04;98304.00;;;16.74;87.55
6532;BME280;3299;42.004;24.868;2023-03-23T10:56:43;98357.19;;;17.10;82.78
6532;BME280;3299;42.004;24.868;2023-03-23T10:59:25;98313.25;;;16.96;80.38
6532;BME280;3299;42.004;24.868;2023-03-23T11:01:54;98316.13;;;16.75;77.92
6532;BME280;3299;42.004;24.868;2023-03-23T11:04:22;98329.88;;;16.95;75.29
6532;BME280;3299;42.004;24.868;2023-03-23T11:06:51;98333.88;;;16.99;72.21
6532;BME280;3299;42.004;24.868;2023-03-23T11:09:34;98356.59;;;17.16;71.68
6532;BME280;3299;42.004;24.868;2023-03-23T11:12:00;98284.84;;;16.83;68.20
6532;BME280;3299;42.004;24.868;2023-03-23T11:16:56;98296.09;;;16.93;67.54
6532;BME280;3299;42.004;24.868;2023-03-23T11:19:24;98346.97;;;17.16;69.22
6532;BME280;3299;42.004;24.868;2023-03-23T11:21:52;98320.41;;;16.94;67.62
6532;BME280;3299;42.004;24.868;2023-03-23T11:24:22;98302.50;;;16.99;64.93
6532;BME280;3299;42.004;24.868;2023-03-23T11:26:47;98250.34;;;16.26;67.49
6532;BME280;3299;42.004;24.868;2023-03-23T11:29:24;98313.41;;;16.67;70.49
6532;BME280;3299;42.004;24.868;2023-03-23T11:32:02;98311.50;;;16.87;72.13
6532;BME280;3299;42.004;24.868;2023-03-23T11:34:40;98263.31;;;16.72;68.20
6532;BME280;3299;42.004;24.868;2023-03-23T11:37:13;98306.53;;;17.11;67.58
6532;BME280;3299;42.004;24.868;2023-03-23T11:39:54;98321.63;;;17.44;70.62
6532;BME280;3299;42.004;24.868;2023-03-23T11:42:48;98325.22;;;17.43;67.91
6532;BME280;3299;42.004;24.868;2023-03-23T11:45:33;98328.50;;;17.45;67.61
6532;BME280;3299;42.004;24.868;2023-03-23T11:50:54;98280.22;;;16.95;70.73
6532;BME280;3299;42.004;24.868;2023-03-23T11:58:38;98305.38;;;16.78;71.03
6532;BME280;3299;42.004;24.868;2023-03-23T12:06:51;98303.47;;;16.71;71.73
6532;BME280;3299;42.004;24.868;2023-03-23T12:09:32;98289.56;;;16.53;70.01
6532;BME280;3299;42.004;24.868;2023-03-23T12:25:23;98309.25;;;16.28;70.73
6532;BME280;3299;42.004;24.868;2023-03-23T12:44:18;98251.66;;;16.39;75.48
6532;BME280;3299;42.004;24.868;2023-03-23T12:47:49;98302.38;;;16.73;75.66
6532;BME280;3299;42.004;24.868;2023-03-23T12:50:18;98275.31;;;16.65;73.09
6532;BME280;3299;42.004;24.868;2023-03-23T12:52:58;98231.31;;;16.43;72.79
6532;BME280;3299;42.004;24.868;2023-03-23T12:55:34;98303.06;;;16.75;74.17
6532;BME280;3299;42.004;24.868;2023-03-23T13:00:48;98300.81;;;16.80;75.40
6532;BME280;3299;42.004;24.868;2023-03-23T13:03:42;98296.53;;;16.62;76.01
6532;BME280;3299;42.004;24.868;2023-03-23T13:08:52;98239.97;;;16.07;77.39
6532;BME280;3299;42.004;24.868;2023-03-23T13:11:29;98286.06;;;16.25;77.09
6532;BME280;3299;42.004;24.868;2023-03-23T13:14:03;98217.00;;;15.83;76.89
6532;BME280;3299;42.004;24.868;2023-03-23T13:16:37;98292.88;;;16.36;77.13
6532;BME280;3299;42.004;24.868;2023-03-23T13:24:18;98245.91;;;15.90;77.22
6532;BME280;3299;42.004;24.868;2023-03-23T13:26:49;98286.69;;;16.10;77.50
6532;BME280;3299;42.004;24.868;2023-03-23T13:29:19;98231.56;;;15.76;76.93
6532;BME280;3299;42.004;24.868;2023-03-23T13:31:46;98296.25;;;16.19;75.34
6532;BME280;3299;42.004;24.868;2023-03-23T13:34:18;98216.84;;;15.85;73.61
6532;BME280;3299;42.004;24.868;2023-03-23T13:36:54;98242.25;;;15.83;73.59
6532;BME280;3299;42.004;24.868;2023-03-23T13:47:39;98308.19;;;17.12;69.78
6532;BME280;3299;42.004;24.868;2023-03-23T13:55:30;98243.31;;;16.80;67.23
6532;BME280;3299;42.004;24.868;2023-03-23T14:03:25;98302.53;;;16.45;71.38
6532;BME280;3299;42.004;24.868;2023-03-23T14:08:38;98220.03;;;15.69;70.84
6532;BME280;3299;42.004;24.868;2023-03-23T14:13:50;98288.56;;;16.54;70.76
6532;BME280;3299;42.004;24.868;2023-03-23T14:18:59;98297.72;;;17.12;67.47
6532;BME280;3299;42.004;24.868;2023-03-23T14:21:36;98266.22;;;17.13;66.22
6532;BME280;3299;42.004;24.868;2023-03-23T14:24:23;98272.66;;;17.19;65.08
6532;BME280;3299;42.004;24.868;2023-03-23T14:26:50;98253.28;;;16.94;67.01
6532;BME280;3299;42.004;24.868;2023-03-23T14:29:18;98278.75;;;17.10;66.28
6532;BME280;3299;42.004;24.868;2023-03-23T14:31:50;98262.78;;;17.13;65.22
6532;BME280;3299;42.004;24.868;2023-03-23T14:34:19;98242.97;;;16.93;65.21
6532;BME280;3299;42.004;24.868;2023-03-23T14:36:45;98276.94;;;16.75;67.22
6532;BME280;3299;42.004;24.868;2023-03-23T14:39:24;98307.31;;;16.76;67.19
6532;BME280;3299;42.004;24.868;2023-03-23T14:41:51;98262.72;;;16.60;67.79
6532;BME280;3299;42.004;24.868;2023-03-23T14:44:26;98239.47;;;16.30;66.96
6532;BME280;3299;42.004;24.868;2023-03-23T14:46:54;98265.44;;;16.41;67.61
6532;BME280;3299;42.004;24.868;2023-03-23T14:49:34;98284.09;;;16.37;68.23
6532;BME280;3299;42.004;24.868;2023-03-23T14:52:13;98262.31;;;16.19;69.08
6532;BME280;3299;42.004;24.868;2023-03-23T14:54:40;98258.63;;;16.12;69.47
6532;BME280;3299;42.004;24.868;2023-03-23T14:57:15;98298.28;;;16.25;70.04
6532;BME280;3299;42.004;24.868;2023-03-23T14:59:46;98230.75;;;15.66;71.11
6532;BME280;3299;42.004;24.868;2023-03-23T15:02:20;98291.19;;;16.08;70.81
6532;BME280;3299;42.004;24.868;2023-03-23T15:04:50;98296.84;;;16.03;71.70
6532;BME280;3299;42.004;24.868;2023-03-23T15:07:19;98252.16;;;15.79;70.83
6532;BME280;3299;42.004;24.868;2023-03-23T15:09:53;98238.06;;;15.53;72.68
6532;BME280;3299;42.004;24.868;2023-03-23T15:12:22;98285.53;;;15.76;72.84